sensor_id;sensor_type;location;lat;lon;timestamp;pressure;altitude;pressure_sealevel;temperature;humidity
9717;BME280;4897;43.570;27.832;2023-01-24T00:01:02;100680.75;;;1.73;100.00
9717;BME280;4897;43.570;27.832;2023-01-24T00:03:29;100625.25;;;1.43;100.00
9717;BME280;4897;43.570;27.832;2023-01-24T00:05:56;100686.75;;;1.42;100.00
9717;BME280;4897;43.570;27.832;2023-01-24T00:08:23;100691.28;;;1.37;100.00
9717;BME280;4897;43.570;27.832;2023-01-24T00:10:58;100665.84;;;1.35;100.00
9717;BME280;4897;43.570;27.832;2023-01-24T00:13:26;100684.94;;;1.46;100.00
9717;BME280;4897;43.570;27.832;2023-01-24T00:16:02;100673.72;;;1.36;100.00
9717;BME280;4897;43.570;27.832;2023-01-24T00:18:28;100685.34;;;1.28;100.00
9717;BME280;4897;43.570;27.832;2023-01-24T00:21:00;100679.81;;;1.38;100.00
9717;BME280;4897;43.570;27.832;2023-01-24T00:23:27;100674.59;;;1.37;100.00
9717;BME280;4897;43.570;27.832;2023-01-24T00:25:56;100665.91;;;1.32;100.00
9717;BME280;4897;43.570;27.832;2023-01-24T00:28:23;100677.97;;;1.42;100.00
9717;BME280;4897;43.570;27.832;2023-01-24T00:30:49;100670.06;;;1.42;100.00
9717;BME280;4897;43.570;27.832;2023-01-24T00:33:16;100651.63;;;1.42;100.00
9717;BME280;4897;43.570;27.832;2023-01-24T00:35:43;100674.66;;;1.34;100.00
9717;BME280;4897;43.570;27.832;2023-01-24T00:38:10;100672.09;;;1.31;100.00
9717;BME280;4897;43.570;27.832;2023-01-24T00:40:37;100680.94;;;1.28;100.00
9717;BME280;4897;43.570;27.832;2023-01-24T00:43:05;100657.41;;;1.21;100.00
9717;BME280;4897;43.570;27.832;2023-01-24T00:45:35;100673.09;;;1.27;100.00
9717;BME280;4897;43.570;27.832;2023-01-24T00:48:02;100669.38;;;1.34;100.00
9717;BME280;4897;43.570;27.832;2023-01-24T00:50:29;100652.16;;;1.19;100.00
9717;BME280;4897;43.570;27.832;2023-01-24T00:52:56;100657.13;;;1.33;100.00
9717;BME280;4897;43.570;27.832;2023-01-24T00:55:23;100640.66;;;1.23;100.00
9717;BME280;4897;43.570;27.832;2023-01-24T00:57:50;100655.22;;;1.38;100.00
9717;BME280;4897;43.570;27.832;2023-01-24T01:00:19;100671.66;;;1.49;100.00
9717;BME280;4897;43.570;27.832;2023-01-24T01:02:46;100671.34;;;1.26;100.00
9717;BME280;4897;43.570;27.832;2023-01-24T01:05:13;100674.06;;;1.21;100.00
9717;BME280;4897;43.570;27.832;2023-01-24T01:07:39;100671.22;;;1.30;100.00
9717;BME280;4897;43.570;27.832;2023-01-24T01:10:07;100670.97;;;1.41;100.00
9717;BME280;4897;43.570;27.832;2023-01-24T01:12:34;100652.47;;;1.42;100.00
9717;BME280;4897;43.570;27.832;2023-01-24T01:15:01;100663.13;;;1.39;100.00
9717;BME280;4897;43.570;27.832;2023-01-24T01:17:29;100663.75;;;1.49;100.00
9717;BME280;4897;43.570;27.832;2023-01-24T01:19:56;100667.38;;;1.45;100.00
9717;BME280;4897;43.570;27.832;2023-01-24T01:22:24;100672.59;;;1.48;100.00
9717;BME280;4897;43.570;27.832;2023-01-24T01:24:51;100657.59;;;1.50;100.00
9717;BME280;4897;43.570;27.832;2023-01-24T01:27:17;100626.00;;;1.12;100.00
9717;BME280;4897;43.570;27.832;2023-01-24T01:29:44;100636.34;;;1.21;100.00
9717;BME280;4897;43.570;27.832;2023-01-24T01:32:11;100649.13;;;1.37;100.00
9717;BME280;4897;43.570;27.832;2023-01-24T01:34:39;100635.28;;;1.28;100.00
9717;BME280;4897;43.570;27.832;2023-01-24T01:37:06;100650.81;;;1.38;100.00
9717;BME280;4897;43.570;27.832;2023-01-24T01:39:33;100657.81;;;1.41;100.00
9717;BME280;4897;43.570;27.832;2023-01-24T01:42:00;100658.00;;;1.33;100.00
9717;BME280;4897;43.570;27.832;2023-01-24T01:44:28;100660.44;;;1.41;100.00
9717;BME280;4897;43.570;27.832;2023-01-24T01:47:12;100642.25;;;1.30;100.00
9717;BME280;4897;43.570;27.832;2023-01-24T01:49:46;100636.53;;;1.12;100.00
9717;BME280;4897;43.570;27.832;2023-01-24T01:52:15;100563.00;;;0.66;100.00
9717;BME280;4897;43.570;27.832;2023-01-24T01:54:43;100642.53;;;1.18;100.00
9717;BME280;4897;43.570;27.832;2023-01-24T01:57:14;100680.00;;;1.31;100.00
9717;BME280;4897;43.570;27.832;2023-01-24T01:59:44;100665.91;;;1.32;100.00
9717;BME280;4897;43.570;27.832;2023-01-24T02:02:14;100665.91;;;1.32;100.00
9717;BME280;4897;43.570;27.832;2023-01-24T02:04:45;100658.09;;;1.29;100.00
9717;BME280;4897;43.570;27.832;2023-01-24T02:07:17;100665.84;;;1.35;100.00
9717;BME280;4897;43.570;27.832;2023-01-24T02:09:49;100662.00;;;1.11;100.00
9717;BME280;4897;43.570;27.832;2023-01-24T02:12:19;100640.50;;;0.93;100.00
9717;BME280;4897;43.570;27.832;2023-01-24T02:14:50;100667.28;;;1.11;100.00
9717;BME280;4897;43.570;27.832;2023-01-24T02:17:35;100653.19;;;1.14;100.00
9717;BME280;4897;43.570;27.832;2023-01-24T02:20:11;100649.50;;;1.21;100.00
9717;BME280;4897;43.570;27.832;2023-01-24T02:22:48;100669.47;;;1.31;100.00
9717;BME280;4897;43.570;27.832;2023-01-24T02:25:22;100674.59;;;1.37;100.00
9717;BME280;4897;43.570;27.832;2023-01-24T02:27:52;100672.94;;;1.33;100.00
9717;BME280;4897;43.570;27.832;2023-01-24T02:30:21;100674.44;;;1.43;100.00
9717;BME280;4897;43.570;27.832;2023-01-24T02:32:48;100649.97;;;1.38;100.00
9717;BME280;4897;43.570;27.832;2023-01-24T02:35:23;100648.53;;;1.25;100.00
9717;BME280;4897;43.570;27.832;2023-01-24T02:37:50;100634.69;;;1.17;100.00
9717;BME280;4897;43.570;27.832;2023-01-24T02:40:18;100664.09;;;1.34;100.00
9717;BME280;4897;43.570;27.832;2023-01-24T02:42:46;100655.41;;;1.30;100.00
9717;BME280;4897;43.570;27.832;2023-01-24T02:45:19;100651.28;;;1.20;100.00
9717;BME280;4897;43.570;27.832;2023-01-24T02:47:48;100666.94;;;1.26;100.00
9717;BME280;4897;43.570;27.832;2023-01-24T02:50:16;100654.53;;;1.30;100.00
9717;BME280;4897;43.570;27.832;2023-01-24T02:52:44;100660.75;;;1.27;100.00
9717;BME280;4897;43.570;27.832;2023-01-24T02:55:29;100674.06;;;1.21;100.00
9717;BME280;4897;43.570;27.832;2023-01-24T02:57:56;100646.44;;;1.01;100.00
9717;BME280;4897;43.570;27.832;2023-01-24T03:00:37;100676.59;;;1.26;100.00
9717;BME280;4897;43.570;27.832;2023-01-24T03:03:05;100652.72;;;1.33;100.00
9717;BME280;4897;43.570;27.832;2023-01-24T03:05:32;100655.22;;;1.38;100.00
9717;BME280;4897;43.570;27.832;2023-01-24T03:08:22;100664.94;;;1.37;100.00
9717;BME280;4897;43.570;27.832;2023-01-24T03:10:49;100643.63;;;1.10;100.00
9717;BME280;4897;43.570;27.832;2023-01-24T03:13:16;100670.47;;;1.25;100.00
9717;BME280;4897;43.570;27.832;2023-01-24T03:16:02;100664.41;;;1.22;100.00
9717;BME280;4897;43.570;27.832;2023-01-24T03:18:46;100673.22;;;1.21;100.00
9717;BME280;4897;43.570;27.832;2023-01-24T03:21:31;100629.72;;;1.03;100.00
9717;BME280;4897;43.570;27.832;2023-01-24T03:24:15;100680.66;;;1.40;100.00
9717;BME280;4897;43.570;27.832;2023-01-24T03:27:00;100663.28;;;1.33;100.00
9717;BME280;4897;43.570;27.832;2023-01-24T03:29:44;100640.47;;;1.31;100.00
9717;BME280;4897;43.570;27.832;2023-01-24T03:32:30;100659.66;;;1.37;100.00
9717;BME280;4897;43.570;27.832;2023-01-24T03:35:14;100687.41;;;1.52;100.00
9717;BME280;4897;43.570;27.832;2023-01-24T03:37:41;100677.75;;;1.51;100.00
9717;BME280;4897;43.570;27.832;2023-01-24T03:40:25;100659.53;;;1.42;100.00
9717;BME280;4897;43.570;27.832;2023-01-24T03:42:52;100643.13;;;1.31;100.00
9717;BME280;4897;43.570;27.832;2023-01-24T03:45:22;100676.09;;;1.47;100.00
9717;BME280;4897;43.570;27.832;2023-01-24T03:47:51;100668.16;;;1.48;100.00
9717;BME280;4897;43.570;27.832;2023-01-24T03:50:31;100657.75;;;1.44;100.00
9717;BME280;4897;43.570;27.832;2023-01-24T03:53:16;100645.19;;;1.53;100.00
9717;BME280;4897;43.570;27.832;2023-01-24T03:55:43;100642.97;;;1.37;100.00
9717;BME280;4897;43.570;27.832;2023-01-24T03:58:11;100665.19;;;1.62;100.00
9717;BME280;4897;43.570;27.832;2023-01-24T04:00:39;100665.03;;;1.68;100.00
9717;BME280;4897;43.570;27.832;2023-01-24T04:03:07;100671.06;;;1.73;100.00
9717;BME280;4897;43.570;27.832;2023-01-24T04:05:34;100663.44;;;1.61;100.00
9717;BME280;4897;43.570;27.832;2023-01-24T04:08:02;100667.78;;;1.63;100.00
9717;BME280;4897;43.570;27.832;2023-01-24T04:10:30;100674.50;;;1.77;100.00
9717;BME280;4897;43.570;27.832;2023-01-24T04:12:57;100678.00;;;1.77;100.00
9717;BME280;4897;43.570;27.832;2023-01-24T04:15:26;100676.31;;;1.75;100.00
9717;BME280;4897;43.570;27.832;2023-01-24T04:17:54;100680.75;;;1.71;100.00
9717;BME280;4897;43.570;27.832;2023-01-24T04:20:23;100665.03;;;1.68;100.00
9717;BME280;4897;43.570;27.832;2023-01-24T04:22:50;100654.53;;;1.67;100.00
9717;BME280;4897;43.570;27.832;2023-01-24T04:25:18;100676.25;;;1.76;100.00
9717;BME280;4897;43.570;27.832;2023-01-24T04:27:45;100672.91;;;1.70;100.00
9717;BME280;4897;43.570;27.832;2023-01-24T04:30:13;100661.78;;;1.57;100.00
9717;BME280;4897;43.570;27.832;2023-01-24T04:32:40;100660.06;;;1.56;100.00
9717;BME280;4897;43.570;27.832;2023-01-24T04:35:09;100682.44;;;1.75;100.00
9717;BME280;4897;43.570;27.832;2023-01-24T04:37:42;100659.00;;;1.65;100.00
9717;BME280;4897;43.570;27.832;2023-01-24T04:40:10;100612.13;;;1.40;100.00
9717;BME280;4897;43.570;27.832;2023-01-24T04:42:37;100656.31;;;1.66;100.00
9717;BME280;4897;43.570;27.832;2023-01-24T04:45:05;100679.81;;;1.75;100.00
9717;BME280;4897;43.570;27.832;2023-01-24T04:47:32;100676.16;;;1.81;100.00
9717;BME280;4897;43.570;27.832;2023-01-24T04:49:59;100671.91;;;1.75;100.00
9717;BME280;4897;43.570;27.832;2023-01-24T04:52:26;100680.13;;;1.61;100.00
9717;BME280;4897;43.570;27.832;2023-01-24T04:54:54;100679.09;;;1.67;100.00
9717;BME280;4897;43.570;27.832;2023-01-24T04:57:21;100691.25;;;1.74;100.00
9717;BME280;4897;43.570;27.832;2023-01-24T04:59:48;100689.91;;;1.58;100.00
9717;BME280;4897;43.570;27.832;2023-01-24T05:02:15;100684.47;;;1.64;100.00
9717;BME280;4897;43.570;27.832;2023-01-24T05:04:41;100614.25;;;1.26;100.00
9717;BME280;4897;43.570;27.832;2023-01-24T05:07:09;100675.75;;;1.62;100.00
9717;BME280;4897;43.570;27.832;2023-01-24T05:09:36;100693.94;;;1.73;100.00
9717;BME280;4897;43.570;27.832;2023-01-24T05:12:04;100681.78;;;1.66;100.00
9717;BME280;4897;43.570;27.832;2023-01-24T05:14:31;100664.06;;;1.37;100.00
9717;BME280;4897;43.570;27.832;2023-01-24T05:16:58;100625.72;;;1.24;100.00
9717;BME280;4897;43.570;27.832;2023-01-24T05:19:25;100702.09;;;1.62;100.00
9717;BME280;4897;43.570;27.832;2023-01-24T05:21:52;100701.44;;;1.54;100.00
9717;BME280;4897;43.570;27.832;2023-01-24T05:24:19;100701.78;;;1.74;100.00
9717;BME280;4897;43.570;27.832;2023-01-24T05:26:46;100676.47;;;1.69;100.00
9717;BME280;4897;43.570;27.832;2023-01-24T05:29:15;100703.41;;;1.81;100.00
9717;BME280;4897;43.570;27.832;2023-01-24T05:31:41;100698.13;;;1.81;100.00
9717;BME280;4897;43.570;27.832;2023-01-24T05:34:08;100696.38;;;1.80;100.00
9717;BME280;4897;43.570;27.832;2023-01-24T05:36:35;100722.91;;;1.74;100.00
9717;BME280;4897;43.570;27.832;2023-01-24T05:39:02;100713.84;;;1.84;100.00
9717;BME280;4897;43.570;27.832;2023-01-24T05:41:29;100648.75;;;1.51;100.00
9717;BME280;4897;43.570;27.832;2023-01-24T05:43:56;100678.19;;;1.70;100.00
9717;BME280;4897;43.570;27.832;2023-01-24T05:46:25;100699.09;;;1.77;100.00
9717;BME280;4897;43.570;27.832;2023-01-24T05:48:53;100701.06;;;1.68;100.00
9717;BME280;4897;43.570;27.832;2023-01-24T05:51:20;100714.00;;;1.78;100.00
9717;BME280;4897;43.570;27.832;2023-01-24T05:53:47;100698.34;;;1.72;100.00
9717;BME280;4897;43.570;27.832;2023-01-24T05:56:16;100722.69;;;1.83;100.00
9717;BME280;4897;43.570;27.832;2023-01-24T05:58:44;100722.91;;;1.74;100.00
9717;BME280;4897;43.570;27.832;2023-01-24T06:01:13;100709.66;;;1.76;100.00
9717;BME280;4897;43.570;27.832;2023-01-24T06:03:43;100723.31;;;1.93;100.00
9717;BME280;4897;43.570;27.832;2023-01-24T06:06:11;100718.97;;;1.90;100.00
9717;BME280;4897;43.570;27.832;2023-01-24T06:08:39;100732.19;;;1.89;100.00
9717;BME280;4897;43.570;27.832;2023-01-24T06:11:09;100734.16;;;1.81;100.00
9717;BME280;4897;43.570;27.832;2023-01-24T06:13:37;100738.03;;;1.66;100.00
9717;BME280;4897;43.570;27.832;2023-01-24T06:16:07;100745.13;;;1.64;100.00
9717;BME280;4897;43.570;27.832;2023-01-24T06:18:35;100630.84;;;0.93;100.00
9717;BME280;4897;43.570;27.832;2023-01-24T06:21:08;100740.09;;;1.53;100.00
9717;BME280;4897;43.570;27.832;2023-01-24T06:23:36;100719.94;;;1.51;100.00
9717;BME280;4897;43.570;27.832;2023-01-24T06:26:03;100734.69;;;1.59;100.00
9717;BME280;4897;43.570;27.832;2023-01-24T06:28:33;100723.19;;;1.62;100.00
9717;BME280;4897;43.570;27.832;2023-01-24T06:31:09;100726.19;;;1.47;100.00
9717;BME280;4897;43.570;27.832;2023-01-24T06:33:51;100735.31;;;1.69;100.00
9717;BME280;4897;43.570;27.832;2023-01-24T06:36:43;100685.28;;;1.31;100.00
9717;BME280;4897;43.570;27.832;2023-01-24T06:39:15;100718.97;;;1.55;100.00
9717;BME280;4897;43.570;27.832;2023-01-24T06:41:42;100708.50;;;1.52;100.00
9717;BME280;4897;43.570;27.832;2023-01-24T06:44:10;100722.97;;;1.71;100.00
9717;BME280;4897;43.570;27.832;2023-01-24T06:46:37;100735.94;;;1.80;100.00
9717;BME280;4897;43.570;27.832;2023-01-24T06:49:04;100747.34;;;1.81;100.00
9717;BME280;4897;43.570;27.832;2023-01-24T06:51:31;100734.16;;;1.81;100.00
9717;BME280;4897;43.570;27.832;2023-01-24T06:53:59;100731.47;;;1.82;100.00
9717;BME280;4897;43.570;27.832;2023-01-24T06:56:27;100736.84;;;1.79;100.00
9717;BME280;4897;43.570;27.832;2023-01-24T06:58:54;100760.59;;;1.79;100.00
9717;BME280;4897;43.570;27.832;2023-01-24T07:01:21;100746.84;;;2.00;100.00
9717;BME280;4897;43.570;27.832;2023-01-24T07:03:48;100748.53;;;2.04;100.00
9717;BME280;4897;43.570;27.832;2023-01-24T07:06:18;100729.38;;;1.96;100.00
9717;BME280;4897;43.570;27.832;2023-01-24T07:08:47;100741.50;;;2.03;100.00
9717;BME280;4897;43.570;27.832;2023-01-24T07:11:16;100723.19;;;1.97;100.00
9717;BME280;4897;43.570;27.832;2023-01-24T07:13:43;100733.91;;;1.91;100.00
9717;BME280;4897;43.570;27.832;2023-01-24T07:16:09;100754.00;;;2.30;100.00
9717;BME280;4897;43.570;27.832;2023-01-24T07:18:37;100761.59;;;2.75;100.00
9717;BME280;4897;43.570;27.832;2023-01-24T07:21:05;100735.94;;;2.48;100.00
9717;BME280;4897;43.570;27.832;2023-01-24T07:23:33;100753.44;;;2.52;100.00
9717;BME280;4897;43.570;27.832;2023-01-24T07:26:01;100725.94;;;2.26;100.00
9717;BME280;4897;43.570;27.832;2023-01-24T07:28:30;100756.31;;;2.42;100.00
9717;BME280;4897;43.570;27.832;2023-01-24T07:30:58;100761.75;;;2.36;100.00
9717;BME280;4897;43.570;27.832;2023-01-24T07:33:25;100695.06;;;1.98;100.00
9717;BME280;4897;43.570;27.832;2023-01-24T07:35:52;100754.91;;;2.29;100.00
9717;BME280;4897;43.570;27.832;2023-01-24T07:38:19;100753.19;;;2.28;100.00
9717;BME280;4897;43.570;27.832;2023-01-24T07:40:49;100715.06;;;2.05;100.00
9717;BME280;4897;43.570;27.832;2023-01-24T07:43:16;100749.22;;;2.44;100.00
9717;BME280;4897;43.570;27.832;2023-01-24T07:45:46;100741.69;;;2.31;100.00
9717;BME280;4897;43.570;27.832;2023-01-24T07:48:13;100743.66;;;2.55;100.00
9717;BME280;4897;43.570;27.832;2023-01-24T07:50:40;100732.31;;;2.52;100.00
9717;BME280;4897;43.570;27.832;2023-01-24T07:53:07;100717.13;;;2.60;100.00
9717;BME280;4897;43.570;27.832;2023-01-24T07:55:34;100728.03;;;2.48;100.00
9717;BME280;4897;43.570;27.832;2023-01-24T07:58:02;100755.84;;;2.61;100.00
9717;BME280;4897;43.570;27.832;2023-01-24T08:00:29;100753.28;;;2.58;100.00
9717;BME280;4897;43.570;27.832;2023-01-24T08:02:58;100743.75;;;2.52;100.00
9717;BME280;4897;43.570;27.832;2023-01-24T08:05:25;100672.03;;;2.04;100.00
9717;BME280;4897;43.570;27.832;2023-01-24T08:07:53;100752.44;;;2.56;100.00
9717;BME280;4897;43.570;27.832;2023-01-24T08:10:21;100759.59;;;2.51;100.00
9717;BME280;4897;43.570;27.832;2023-01-24T08:12:48;100745.34;;;2.58;100.00
9717;BME280;4897;43.570;27.832;2023-01-24T08:15:15;100743.31;;;2.67;100.00
9717;BME280;4897;43.570;27.832;2023-01-24T08:17:43;100728.69;;;2.56;100.00
9717;BME280;4897;43.570;27.832;2023-01-24T08:20:12;100742.16;;;2.77;100.00
9717;BME280;4897;43.570;27.832;2023-01-24T08:22:39;100729.09;;;2.71;100.00
9717;BME280;4897;43.570;27.832;2023-01-24T08:25:07;100733.53;;;2.71;100.00
9717;BME280;4897;43.570;27.832;2023-01-24T08:27:34;100743.13;;;2.75;100.00
9717;BME280;4897;43.570;27.832;2023-01-24T08:30:02;100679.22;;;2.30;100.00
9717;BME280;4897;43.570;27.832;2023-01-24T08:32:29;100697.00;;;2.23;100.00
9717;BME280;4897;43.570;27.832;2023-01-24T08:34:57;100753.78;;;2.38;100.00
9717;BME280;4897;43.570;27.832;2023-01-24T08:37:25;100737.06;;;2.39;100.00
9717;BME280;4897;43.570;27.832;2023-01-24T08:39:52;100729.56;;;2.55;100.00
9717;BME280;4897;43.570;27.832;2023-01-24T08:42:22;100724.22;;;2.58;100.00
9717;BME280;4897;43.570;27.832;2023-01-24T08:44:49;100739.19;;;2.57;100.00
9717;BME280;4897;43.570;27.832;2023-01-24T08:47:21;100748.41;;;2.75;100.00
9717;BME280;4897;43.570;27.832;2023-01-24T08:49:48;100742.94;;;2.81;100.00
9717;BME280;4897;43.570;27.832;2023-01-24T08:52:17;100734.78;;;2.88;100.00
9717;BME280;4897;43.570;27.832;2023-01-24T08:54:46;100734.09;;;2.82;100.00
9717;BME280;4897;43.570;27.832;2023-01-24T08:57:13;100731.84;;;2.99;100.00
9717;BME280;4897;43.570;27.832;2023-01-24T08:59:40;100751.78;;;3.10;100.00
9717;BME280;4897;43.570;27.832;2023-01-24T09:02:08;100730.56;;;3.12;100.00
9717;BME280;4897;43.570;27.832;2023-01-24T09:04:36;100725.66;;;3.29;100.00
9717;BME280;4897;43.570;27.832;2023-01-24T09:07:02;100724.19;;;3.48;100.00
9717;BME280;4897;43.570;27.832;2023-01-24T09:09:29;100738.56;;;3.38;100.00
9717;BME280;4897;43.570;27.832;2023-01-24T09:11:58;100707.59;;;3.14;100.00
9717;BME280;4897;43.570;27.832;2023-01-24T09:14:25;100733.66;;;3.26;100.00
9717;BME280;4897;43.570;27.832;2023-01-24T09:16:52;100732.94;;;3.49;100.00
9717;BME280;4897;43.570;27.832;2023-01-24T09:19:19;100729.50;;;3.47;100.00
9717;BME280;4897;43.570;27.832;2023-01-24T09:21:46;100723.06;;;3.55;100.00
9717;BME280;4897;43.570;27.832;2023-01-24T09:24:17;100719.72;;;3.49;100.00
9717;BME280;4897;43.570;27.832;2023-01-24T09:26:44;100721.63;;;3.73;100.00
9717;BME280;4897;43.570;27.832;2023-01-24T09:29:13;100687.47;;;3.65;100.00
9717;BME280;4897;43.570;27.832;2023-01-24T09:31:40;100633.16;;;3.28;100.00
9717;BME280;4897;43.570;27.832;2023-01-24T09:34:07;100700.75;;;4.41;100.00
9717;BME280;4897;43.570;27.832;2023-01-24T09:36:34;100713.75;;;4.71;100.00
9717;BME280;4897;43.570;27.832;2023-01-24T09:39:03;100692.94;;;5.09;100.00
9717;BME280;4897;43.570;27.832;2023-01-24T09:41:48;100665.25;;;5.16;100.00
9717;BME280;4897;43.570;27.832;2023-01-24T09:44:27;100654.16;;;5.06;100.00
9717;BME280;4897;43.570;27.832;2023-01-24T09:47:02;100692.47;;;4.74;100.00
9717;BME280;4897;43.570;27.832;2023-01-24T09:49:36;100698.91;;;4.43;100.00
9717;BME280;4897;43.570;27.832;2023-01-24T09:52:09;100685.94;;;4.60;100.00
9717;BME280;4897;43.570;27.832;2023-01-24T09:54:46;100705.28;;;4.62;100.00
9717;BME280;4897;43.570;27.832;2023-01-24T09:57:19;100677.06;;;4.12;100.00
9717;BME280;4897;43.570;27.832;2023-01-24T09:59:52;100618.41;;;3.48;100.00
9717;BME280;4897;43.570;27.832;2023-01-24T10:02:23;100624.06;;;3.36;100.00
9717;BME280;4897;43.570;27.832;2023-01-24T10:04:53;100679.28;;;3.73;100.00
9717;BME280;4897;43.570;27.832;2023-01-24T10:10:45;100680.84;;;3.52;100.00
9717;BME280;4897;43.570;27.832;2023-01-24T10:16:16;100621.53;;;3.33;100.00
9717;BME280;4897;43.570;27.832;2023-01-24T10:18:56;100677.28;;;3.53;100.00
9717;BME280;4897;43.570;27.832;2023-01-24T10:21:49;100649.69;;;3.34;100.00
9717;BME280;4897;43.570;27.832;2023-01-24T10:24:29;100630.72;;;3.21;100.00
9717;BME280;4897;43.570;27.832;2023-01-24T10:26:59;100657.28;;;3.45;100.00
9717;BME280;4897;43.570;27.832;2023-01-24T10:29:30;100657.44;;;3.40;100.00
9717;BME280;4897;43.570;27.832;2023-01-24T10:32:00;100655.44;;;3.47;100.00
9717;BME280;4897;43.570;27.832;2023-01-24T10:34:32;100648.31;;;3.50;100.00
9717;BME280;4897;43.570;27.832;2023-01-24T10:37:04;100630.38;;;3.32;100.00
9717;BME280;4897;43.570;27.832;2023-01-24T10:39:32;100634.41;;;3.44;100.00
9717;BME280;4897;43.570;27.832;2023-01-24T10:42:02;100641.88;;;3.57;100.00
9717;BME280;4897;43.570;27.832;2023-01-24T10:44:31;100644.19;;;3.42;100.00
9717;BME280;4897;43.570;27.832;2023-01-24T10:47:20;100635.66;;;3.32;100.00
9717;BME280;4897;43.570;27.832;2023-01-24T10:49:57;100618.47;;;3.19;100.00
9717;BME280;4897;43.570;27.832;2023-01-24T10:52:24;100636.44;;;3.36;100.00
9717;BME280;4897;43.570;27.832;2023-01-24T10:54:53;100630.84;;;3.45;100.00
9717;BME280;4897;43.570;27.832;2023-01-24T10:57:30;100627.91;;;3.54;100.00
9717;BME280;4897;43.570;27.832;2023-01-24T11:00:17;100637.19;;;3.65;100.00
9717;BME280;4897;43.570;27.832;2023-01-24T11:02:49;100630.50;;;3.55;100.00
9717;BME280;4897;43.570;27.832;2023-01-24T11:05:18;100641.38;;;3.46;100.00
9717;BME280;4897;43.570;27.832;2023-01-24T11:07:51;100628.06;;;3.49;100.00
9717;BME280;4897;43.570;27.832;2023-01-24T11:10:26;100611.97;;;3.55;100.00
9717;BME280;4897;43.570;27.832;2023-01-24T11:12:58;100616.94;;;3.40;100.00
9717;BME280;4897;43.570;27.832;2023-01-24T11:15:27;100634.31;;;3.47;100.00
9717;BME280;4897;43.570;27.832;2023-01-24T11:17:58;100602.22;;;3.57;100.00
9717;BME280;4897;43.570;27.832;2023-01-24T11:20:30;100598.53;;;3.61;100.00
9717;BME280;4897;43.570;27.832;2023-01-24T11:23:02;100586.94;;;3.65;100.00
9717;BME280;4897;43.570;27.832;2023-01-24T11:25:30;100613.91;;;3.76;100.00
9717;BME280;4897;43.570;27.832;2023-01-24T11:27:57;100602.28;;;3.56;100.00
9717;BME280;4897;43.570;27.832;2023-01-24T11:30:26;100616.63;;;3.75;100.00
9717;BME280;4897;43.570;27.832;2023-01-24T11:33:12;100613.41;;;3.65;100.00
9717;BME280;4897;43.570;27.832;2023-01-24T11:35:50;100612.47;;;3.40;100.00
9717;BME280;4897;43.570;27.832;2023-01-24T11:38:25;100619.91;;;3.29;100.00
9717;BME280;4897;43.570;27.832;2023-01-24T11:41:03;100588.69;;;3.14;100.00
9717;BME280;4897;43.570;27.832;2023-01-24T11:43:57;100588.28;;;3.26;100.00
9717;BME280;4897;43.570;27.832;2023-01-24T11:46:44;100605.63;;;3.61;100.00
9717;BME280;4897;43.570;27.832;2023-01-24T11:49:28;100583.44;;;3.39;100.00
9717;BME280;4897;43.570;27.832;2023-01-24T11:52:06;100614.94;;;3.46;100.00
9717;BME280;4897;43.570;27.832;2023-01-24T11:54:43;100608.13;;;3.39;100.00
9717;BME280;4897;43.570;27.832;2023-01-24T11:57:25;100619.59;;;3.38;100.00
9717;BME280;4897;43.570;27.832;2023-01-24T12:00:03;100607.44;;;3.33;100.00
9717;BME280;4897;43.570;27.832;2023-01-24T12:02:50;100598.03;;;3.24;100.00
9717;BME280;4897;43.570;27.832;2023-01-24T12:05:32;100615.25;;;3.37;100.00
9717;BME280;4897;43.570;27.832;2023-01-24T12:08:13;100555.63;;;3.01;100.00
9717;BME280;4897;43.570;27.832;2023-01-24T12:10:52;100582.91;;;3.29;100.00
9717;BME280;4897;43.570;27.832;2023-01-24T12:13:29;100612.69;;;3.34;100.00
9717;BME280;4897;43.570;27.832;2023-01-24T12:16:06;100607.50;;;3.31;100.00
9717;BME280;4897;43.570;27.832;2023-01-24T12:18:47;100572.53;;;3.23;100.00
9717;BME280;4897;43.570;27.832;2023-01-24T12:21:20;100346.75;;;2.01;100.00
9717;BME280;4897;43.570;27.832;2023-01-24T12:23:57;100585.22;;;3.38;100.00
9717;BME280;4897;43.570;27.832;2023-01-24T12:26:28;100587.63;;;3.46;100.00
9717;BME280;4897;43.570;27.832;2023-01-24T12:29:00;100541.84;;;3.17;100.00
9717;BME280;4897;43.570;27.832;2023-01-24T12:31:41;100592.47;;;3.33;100.00
9717;BME280;4897;43.570;27.832;2023-01-24T12:34:22;100593.34;;;3.32;100.00
9717;BME280;4897;43.570;27.832;2023-01-24T12:36:59;100585.03;;;3.18;100.00
9717;BME280;4897;43.570;27.832;2023-01-24T12:39:37;100605.09;;;3.23;100.00
9717;BME280;4897;43.570;27.832;2023-01-24T12:42:15;100598.38;;;3.13;100.00
9717;BME280;4897;43.570;27.832;2023-01-24T12:44:48;100611.03;;;3.32;100.00
9717;BME280;4897;43.570;27.832;2023-01-24T12:47:25;100602.75;;;3.14;100.00
9717;BME280;4897;43.570;27.832;2023-01-24T12:50:03;100558.97;;;2.51;100.00
9717;BME280;4897;43.570;27.832;2023-01-24T12:52:40;100610.59;;;2.90;100.00
9717;BME280;4897;43.570;27.832;2023-01-24T12:55:13;100605.38;;;2.87;100.00
9717;BME280;4897;43.570;27.832;2023-01-24T12:57:43;100609.41;;;3.00;100.00
9717;BME280;4897;43.570;27.832;2023-01-24T13:00:16;100585.31;;;2.81;100.00
9717;BME280;4897;43.570;27.832;2023-01-24T13:02:59;100615.38;;;3.05;100.00
9717;BME280;4897;43.570;27.832;2023-01-24T13:05:39;100611.09;;;3.02;100.00
9717;BME280;4897;43.570;27.832;2023-01-24T13:08:21;100611.22;;;2.98;100.00
9717;BME280;4897;43.570;27.832;2023-01-24T13:11:00;100615.38;;;3.05;100.00
9717;BME280;4897;43.570;27.832;2023-01-24T13:13:35;100597.59;;;2.82;100.00
9717;BME280;4897;43.570;27.832;2023-01-24T13:18:55;100600.25;;;3.10;100.00
9717;BME280;4897;43.570;27.832;2023-01-24T13:21:29;100610.22;;;3.02;100.00
9717;BME280;4897;43.570;27.832;2023-01-24T13:24:25;100613.88;;;2.96;100.00
9717;BME280;4897;43.570;27.832;2023-01-24T13:27:13;100594.44;;;2.99;100.00
9717;BME280;4897;43.570;27.832;2023-01-24T13:29:51;100603.13;;;2.75;100.00